sensor_id;sensor_type;location;lat;lon;timestamp;temperature;humidity
22950;DHT22;11641;51.018;4.474;2022-08-05T00:01:40;22.50;99.90
22950;DHT22;11641;51.018;4.474;2022-08-05T00:04:07;22.40;99.90
22950;DHT22;11641;51.018;4.474;2022-08-05T00:06:33;22.40;99.90
22950;DHT22;11641;51.018;4.474;2022-08-05T00:08:59;22.50;99.90
22950;DHT22;11641;51.018;4.474;2022-08-05T00:11:28;22.50;99.90
22950;DHT22;11641;51.018;4.474;2022-08-05T00:13:55;22.40;99.90
22950;DHT22;11641;51.018;4.474;2022-08-05T00:16:22;22.40;99.90
22950;DHT22;11641;51.018;4.474;2022-08-05T00:18:48;22.20;99.90
22950;DHT22;11641;51.018;4.474;2022-08-05T00:21:17;22.30;99.90
22950;DHT22;11641;51.018;4.474;2022-08-05T00:23:45;22.30;99.90
22950;DHT22;11641;51.018;4.474;2022-08-05T00:26:12;22.20;99.90
22950;DHT22;11641;51.018;4.474;2022-08-05T00:28:38;22.20;99.90
22950;DHT22;11641;51.018;4.474;2022-08-05T00:31:04;22.10;99.90
22950;DHT22;11641;51.018;4.474;2022-08-05T00:33:31;22.20;99.90
22950;DHT22;11641;51.018;4.474;2022-08-05T00:35:57;22.40;99.90
22950;DHT22;11641;51.018;4.474;2022-08-05T00:38:25;22.40;99.90
22950;DHT22;11641;51.018;4.474;2022-08-05T00:40:54;22.20;99.90
22950;DHT22;11641;51.018;4.474;2022-08-05T00:43:24;22.20;99.90
22950;DHT22;11641;51.018;4.474;2022-08-05T00:45:49;22.20;99.90
22950;DHT22;11641;51.018;4.474;2022-08-05T00:48:22;22.10;99.90
22950;DHT22;11641;51.018;4.474;2022-08-05T00:50:51;22.00;99.90
22950;DHT22;11641;51.018;4.474;2022-08-05T00:53:19;22.10;99.90
22950;DHT22;11641;51.018;4.474;2022-08-05T00:55:46;22.00;99.90
22950;DHT22;11641;51.018;4.474;2022-08-05T00:58:14;22.00;99.90
22950;DHT22;11641;51.018;4.474;2022-08-05T01:00:43;21.90;99.90
22950;DHT22;11641;51.018;4.474;2022-08-05T01:03:10;21.90;99.90
22950;DHT22;11641;51.018;4.474;2022-08-05T01:05:36;22.00;99.90
22950;DHT22;11641;51.018;4.474;2022-08-05T01:08:02;21.90;99.90
22950;DHT22;11641;51.018;4.474;2022-08-05T01:10:38;22.00;99.90
22950;DHT22;11641;51.018;4.474;2022-08-05T01:13:15;22.10;99.90
22950;DHT22;11641;51.018;4.474;2022-08-05T01:15:49;22.00;99.90
22950;DHT22;11641;51.018;4.474;2022-08-05T01:18:25;22.00;99.90
22950;DHT22;11641;51.018;4.474;2022-08-05T01:26:20;21.80;99.90
22950;DHT22;11641;51.018;4.474;2022-08-05T01:28:56;21.80;99.90
22950;DHT22;11641;51.018;4.474;2022-08-05T01:31:33;21.80;99.90
22950;DHT22;11641;51.018;4.474;2022-08-05T01:39:46;21.70;99.90
22950;DHT22;11641;51.018;4.474;2022-08-05T01:42:18;21.60;99.90
22950;DHT22;11641;51.018;4.474;2022-08-05T01:44:45;21.60;99.90
22950;DHT22;11641;51.018;4.474;2022-08-05T01:47:16;21.50;99.90
22950;DHT22;11641;51.018;4.474;2022-08-05T01:49:51;21.60;99.90
22950;DHT22;11641;51.018;4.474;2022-08-05T01:52:19;21.70;99.90
22950;DHT22;11641;51.018;4.474;2022-08-05T01:54:48;21.70;99.90
22950;DHT22;11641;51.018;4.474;2022-08-05T01:57:28;21.70;99.90
22950;DHT22;11641;51.018;4.474;2022-08-05T01:59:58;21.90;99.90
22950;DHT22;11641;51.018;4.474;2022-08-05T02:02:27;21.80;99.90
22950;DHT22;11641;51.018;4.474;2022-08-05T02:04:57;21.80;99.90
22950;DHT22;11641;51.018;4.474;2022-08-05T02:07:26;21.70;99.90
22950;DHT22;11641;51.018;4.474;2022-08-05T02:09:52;21.80;99.90
22950;DHT22;11641;51.018;4.474;2022-08-05T02:12:26;21.80;99.90
22950;DHT22;11641;51.018;4.474;2022-08-05T02:15:20;21.90;99.90
22950;DHT22;11641;51.018;4.474;2022-08-05T02:18:00;22.00;99.90
22950;DHT22;11641;51.018;4.474;2022-08-05T02:20:32;21.90;99.90
22950;DHT22;11641;51.018;4.474;2022-08-05T02:23:07;21.90;99.90
22950;DHT22;11641;51.018;4.474;2022-08-05T02:25:36;21.90;99.90
22950;DHT22;11641;51.018;4.474;2022-08-05T02:28:05;21.90;99.90
22950;DHT22;11641;51.018;4.474;2022-08-05T02:30:44;21.90;99.90
22950;DHT22;11641;51.018;4.474;2022-08-05T02:33:15;21.90;99.90
22950;DHT22;11641;51.018;4.474;2022-08-05T02:35:44;21.60;99.90
22950;DHT22;11641;51.018;4.474;2022-08-05T02:38:13;21.60;99.90
22950;DHT22;11641;51.018;4.474;2022-08-05T02:40:42;21.60;99.90
22950;DHT22;11641;51.018;4.474;2022-08-05T02:43:12;21.60;99.90
22950;DHT22;11641;51.018;4.474;2022-08-05T02:45:43;21.60;99.90
22950;DHT22;11641;51.018;4.474;2022-08-05T02:48:10;21.60;99.90
22950;DHT22;11641;51.018;4.474;2022-08-05T02:50:37;21.60;99.90
22950;DHT22;11641;51.018;4.474;2022-08-05T02:53:08;21.70;99.90
22950;DHT22;11641;51.018;4.474;2022-08-05T02:55:37;21.60;99.90
22950;DHT22;11641;51.018;4.474;2022-08-05T02:58:07;21.50;99.90
22950;DHT22;11641;51.018;4.474;2022-08-05T03:00:36;21.30;99.90
22950;DHT22;11641;51.018;4.474;2022-08-05T03:03:03;21.30;99.90
22950;DHT22;11641;51.018;4.474;2022-08-05T03:05:30;21.40;99.90
22950;DHT22;11641;51.018;4.474;2022-08-05T03:07:58;21.40;99.90
22950;DHT22;11641;51.018;4.474;2022-08-05T03:10:26;21.50;99.90
22950;DHT22;11641;51.018;4.474;2022-08-05T03:12:53;21.50;99.90
22950;DHT22;11641;51.018;4.474;2022-08-05T03:15:19;21.60;99.90
22950;DHT22;11641;51.018;4.474;2022-08-05T03:17:46;21.60;99.90
22950;DHT22;11641;51.018;4.474;2022-08-05T03:20:12;21.50;99.90
22950;DHT22;11641;51.018;4.474;2022-08-05T03:22:37;21.60;99.90
22950;DHT22;11641;51.018;4.474;2022-08-05T03:25:06;21.50;99.90
22950;DHT22;11641;51.018;4.474;2022-08-05T03:27:34;21.50;99.90
22950;DHT22;11641;51.018;4.474;2022-08-05T03:30:02;21.50;99.90
22950;DHT22;11641;51.018;4.474;2022-08-05T03:32:28;21.40;99.90
22950;DHT22;11641;51.018;4.474;2022-08-05T03:34:54;21.40;99.90
22950;DHT22;11641;51.018;4.474;2022-08-05T03:37:20;21.30;99.90
22950;DHT22;11641;51.018;4.474;2022-08-05T03:39:57;21.30;99.90
22950;DHT22;11641;51.018;4.474;2022-08-05T03:42:24;21.30;99.90
22950;DHT22;11641;51.018;4.474;2022-08-05T03:44:53;21.40;99.90
22950;DHT22;11641;51.018;4.474;2022-08-05T03:47:22;21.30;99.90
22950;DHT22;11641;51.018;4.474;2022-08-05T03:49:51;21.30;99.90
22950;DHT22;11641;51.018;4.474;2022-08-05T03:52:28;21.30;99.90
22950;DHT22;11641;51.018;4.474;2022-08-05T03:55:09;21.30;99.90
22950;DHT22;11641;51.018;4.474;2022-08-05T03:57:43;21.30;99.90
22950;DHT22;11641;51.018;4.474;2022-08-05T04:00:11;21.20;99.90
22950;DHT22;11641;51.018;4.474;2022-08-05T04:02:39;21.30;99.90
22950;DHT22;11641;51.018;4.474;2022-08-05T04:05:08;21.20;99.90
22950;DHT22;11641;51.018;4.474;2022-08-05T04:07:37;21.20;99.90
22950;DHT22;11641;51.018;4.474;2022-08-05T04:10:03;21.30;99.90
22950;DHT22;11641;51.018;4.474;2022-08-05T04:12:29;21.20;99.90
22950;DHT22;11641;51.018;4.474;2022-08-05T04:14:56;21.20;99.90
22950;DHT22;11641;51.018;4.474;2022-08-05T04:17:24;21.20;99.90
22950;DHT22;11641;51.018;4.474;2022-08-05T04:19:49;21.20;99.90
22950;DHT22;11641;51.018;4.474;2022-08-05T04:22:18;21.10;99.90
22950;DHT22;11641;51.018;4.474;2022-08-05T04:24:44;21.10;99.90
22950;DHT22;11641;51.018;4.474;2022-08-05T04:27:14;21.00;99.90
22950;DHT22;11641;51.018;4.474;2022-08-05T04:29:40;20.90;99.90
22950;DHT22;11641;51.018;4.474;2022-08-05T04:32:08;21.00;99.90
22950;DHT22;11641;51.018;4.474;2022-08-05T04:34:34;21.00;99.90
22950;DHT22;11641;51.018;4.474;2022-08-05T04:37:01;21.00;99.90
22950;DHT22;11641;51.018;4.474;2022-08-05T04:39:27;20.90;99.90
22950;DHT22;11641;51.018;4.474;2022-08-05T04:41:53;21.00;99.90
22950;DHT22;11641;51.018;4.474;2022-08-05T04:44:19;21.00;99.90
22950;DHT22;11641;51.018;4.474;2022-08-05T04:46:51;21.00;99.90
22950;DHT22;11641;51.018;4.474;2022-08-05T04:49:20;21.10;99.90
22950;DHT22;11641;51.018;4.474;2022-08-05T04:51:45;21.10;99.90
22950;DHT22;11641;51.018;4.474;2022-08-05T04:54:11;21.10;99.90
22950;DHT22;11641;51.018;4.474;2022-08-05T04:56:41;21.10;99.90
22950;DHT22;11641;51.018;4.474;2022-08-05T04:59:06;21.10;99.90
22950;DHT22;11641;51.018;4.474;2022-08-05T05:01:32;20.90;99.90
22950;DHT22;11641;51.018;4.474;2022-08-05T05:04:00;20.80;99.90
22950;DHT22;11641;51.018;4.474;2022-08-05T05:06:30;20.90;99.90
22950;DHT22;11641;51.018;4.474;2022-08-05T05:08:56;20.90;99.90
22950;DHT22;11641;51.018;4.474;2022-08-05T05:11:22;20.90;99.90
22950;DHT22;11641;51.018;4.474;2022-08-05T05:13:49;20.90;99.90
22950;DHT22;11641;51.018;4.474;2022-08-05T05:16:15;20.90;99.90
22950;DHT22;11641;51.018;4.474;2022-08-05T05:18:41;20.90;99.90
22950;DHT22;11641;51.018;4.474;2022-08-05T05:21:10;20.90;99.90
22950;DHT22;11641;51.018;4.474;2022-08-05T05:23:35;20.90;99.90
22950;DHT22;11641;51.018;4.474;2022-08-05T05:26:05;20.90;99.90
22950;DHT22;11641;51.018;4.474;2022-08-05T05:28:34;21.10;99.90
22950;DHT22;11641;51.018;4.474;2022-08-05T05:31:05;21.20;99.90
22950;DHT22;11641;51.018;4.474;2022-08-05T05:33:31;21.30;99.90
22950;DHT22;11641;51.018;4.474;2022-08-05T05:35:57;21.50;99.90
22950;DHT22;11641;51.018;4.474;2022-08-05T05:38:23;21.40;99.90
22950;DHT22;11641;51.018;4.474;2022-08-05T05:40:48;21.50;99.90
22950;DHT22;11641;51.018;4.474;2022-08-05T05:43:14;21.50;99.90
22950;DHT22;11641;51.018;4.474;2022-08-05T05:45:42;21.60;99.90
22950;DHT22;11641;51.018;4.474;2022-08-05T05:48:08;21.50;99.90
22950;DHT22;11641;51.018;4.474;2022-08-05T05:50:34;21.60;99.90
22950;DHT22;11641;51.018;4.474;2022-08-05T05:53:01;21.40;99.90
22950;DHT22;11641;51.018;4.474;2022-08-05T05:55:26;21.40;99.90
22950;DHT22;11641;51.018;4.474;2022-08-05T05:57:52;21.30;99.90
22950;DHT22;11641;51.018;4.474;2022-08-05T06:00:19;21.30;99.90
22950;DHT22;11641;51.018;4.474;2022-08-05T06:02:47;21.30;99.90
22950;DHT22;11641;51.018;4.474;2022-08-05T06:05:14;21.00;99.90
22950;DHT22;11641;51.018;4.474;2022-08-05T06:07:44;21.00;99.90
22950;DHT22;11641;51.018;4.474;2022-08-05T06:10:12;21.10;99.90
22950;DHT22;11641;51.018;4.474;2022-08-05T06:12:38;21.20;99.90
22950;DHT22;11641;51.018;4.474;2022-08-05T06:15:06;21.40;99.90
22950;DHT22;11641;51.018;4.474;2022-08-05T06:17:32;21.50;99.90
22950;DHT22;11641;51.018;4.474;2022-08-05T06:19:58;21.60;99.90
22950;DHT22;11641;51.018;4.474;2022-08-05T06:22:26;21.70;99.90
22950;DHT22;11641;51.018;4.474;2022-08-05T06:24:55;22.00;99.90
22950;DHT22;11641;51.018;4.474;2022-08-05T06:27:23;22.00;99.90
22950;DHT22;11641;51.018;4.474;2022-08-05T06:29:49;22.10;99.90
22950;DHT22;11641;51.018;4.474;2022-08-05T06:32:15;22.10;99.90
22950;DHT22;11641;51.018;4.474;2022-08-05T06:34:41;22.50;99.90
22950;DHT22;11641;51.018;4.474;2022-08-05T06:37:07;22.70;99.90
22950;DHT22;11641;51.018;4.474;2022-08-05T06:39:33;22.90;99.90
22950;DHT22;11641;51.018;4.474;2022-08-05T06:42:01;22.90;99.90
22950;DHT22;11641;51.018;4.474;2022-08-05T06:44:28;22.80;99.90
22950;DHT22;11641;51.018;4.474;2022-08-05T06:46:56;22.70;99.90
22950;DHT22;11641;51.018;4.474;2022-08-05T06:49:24;22.60;99.90
22950;DHT22;11641;51.018;4.474;2022-08-05T06:51:53;22.50;99.90
22950;DHT22;11641;51.018;4.474;2022-08-05T06:54:19;22.50;99.90
22950;DHT22;11641;51.018;4.474;2022-08-05T06:56:45;22.50;99.90
22950;DHT22;11641;51.018;4.474;2022-08-05T06:59:10;22.60;99.90
22950;DHT22;11641;51.018;4.474;2022-08-05T07:01:39;22.60;99.90
22950;DHT22;11641;51.018;4.474;2022-08-05T07:04:05;22.80;99.90
22950;DHT22;11641;51.018;4.474;2022-08-05T07:06:31;23.10;99.90
22950;DHT22;11641;51.018;4.474;2022-08-05T07:08:56;23.20;99.90
22950;DHT22;11641;51.018;4.474;2022-08-05T07:11:22;23.30;99.90
22950;DHT22;11641;51.018;4.474;2022-08-05T07:13:48;23.40;99.90
22950;DHT22;11641;51.018;4.474;2022-08-05T07:16:32;23.50;99.90
22950;DHT22;11641;51.018;4.474;2022-08-05T07:19:15;23.50;99.90
22950;DHT22;11641;51.018;4.474;2022-08-05T07:21:43;23.60;99.90
22950;DHT22;11641;51.018;4.474;2022-08-05T07:24:08;23.40;99.90
22950;DHT22;11641;51.018;4.474;2022-08-05T07:26:34;23.10;99.90
22950;DHT22;11641;51.018;4.474;2022-08-05T07:29:05;23.30;99.90
22950;DHT22;11641;51.018;4.474;2022-08-05T07:31:34;23.40;99.90
22950;DHT22;11641;51.018;4.474;2022-08-05T07:34:00;23.60;99.90
22950;DHT22;11641;51.018;4.474;2022-08-05T07:36:25;23.60;99.90
22950;DHT22;11641;51.018;4.474;2022-08-05T07:38:52;23.40;99.90
22950;DHT22;11641;51.018;4.474;2022-08-05T07:41:20;23.30;99.90
22950;DHT22;11641;51.018;4.474;2022-08-05T07:43:46;23.40;99.90
22950;DHT22;11641;51.018;4.474;2022-08-05T07:46:13;23.70;99.90
22950;DHT22;11641;51.018;4.474;2022-08-05T07:48:41;23.80;99.90
22950;DHT22;11641;51.018;4.474;2022-08-05T07:51:10;23.90;99.90
22950;DHT22;11641;51.018;4.474;2022-08-05T07:53:36;24.00;99.90
22950;DHT22;11641;51.018;4.474;2022-08-05T07:56:07;24.20;99.90
22950;DHT22;11641;51.018;4.474;2022-08-05T07:58:35;24.60;99.90
22950;DHT22;11641;51.018;4.474;2022-08-05T08:01:03;25.10;99.90
22950;DHT22;11641;51.018;4.474;2022-08-05T08:03:29;25.30;99.90
22950;DHT22;11641;51.018;4.474;2022-08-05T08:05:57;25.50;99.90
22950;DHT22;11641;51.018;4.474;2022-08-05T08:08:24;25.50;99.90
22950;DHT22;11641;51.018;4.474;2022-08-05T08:10:50;25.60;99.90
22950;DHT22;11641;51.018;4.474;2022-08-05T08:13:16;25.40;99.90
22950;DHT22;11641;51.018;4.474;2022-08-05T08:15:42;25.40;99.90
22950;DHT22;11641;51.018;4.474;2022-08-05T08:18:07;25.20;99.90
22950;DHT22;11641;51.018;4.474;2022-08-05T08:20:34;25.00;99.90
22950;DHT22;11641;51.018;4.474;2022-08-05T08:23:00;25.20;99.90
22950;DHT22;11641;51.018;4.474;2022-08-05T08:25:27;25.20;99.90
22950;DHT22;11641;51.018;4.474;2022-08-05T08:27:54;25.20;99.90
22950;DHT22;11641;51.018;4.474;2022-08-05T08:30:23;25.50;99.90
22950;DHT22;11641;51.018;4.474;2022-08-05T08:32:52;25.00;99.90
22950;DHT22;11641;51.018;4.474;2022-08-05T08:35:17;24.70;99.90
22950;DHT22;11641;51.018;4.474;2022-08-05T08:37:44;24.90;99.90
22950;DHT22;11641;51.018;4.474;2022-08-05T08:40:10;24.90;99.90
22950;DHT22;11641;51.018;4.474;2022-08-05T08:42:39;25.00;99.90
22950;DHT22;11641;51.018;4.474;2022-08-05T08:45:06;25.20;99.90
22950;DHT22;11641;51.018;4.474;2022-08-05T08:47:37;25.60;99.90
22950;DHT22;11641;51.018;4.474;2022-08-05T08:50:04;25.50;99.90
22950;DHT22;11641;51.018;4.474;2022-08-05T08:52:31;25.30;99.90
22950;DHT22;11641;51.018;4.474;2022-08-05T08:55:03;25.00;99.90
22950;DHT22;11641;51.018;4.474;2022-08-05T08:57:29;24.90;99.90
22950;DHT22;11641;51.018;4.474;2022-08-05T08:59:55;24.90;99.90
22950;DHT22;11641;51.018;4.474;2022-08-05T09:02:22;24.60;99.90
22950;DHT22;11641;51.018;4.474;2022-08-05T09:04:49;24.70;99.90
22950;DHT22;11641;51.018;4.474;2022-08-05T09:07:19;24.80;99.90
22950;DHT22;11641;51.018;4.474;2022-08-05T09:09:44;25.00;99.90
22950;DHT22;11641;51.018;4.474;2022-08-05T09:12:10;24.90;99.90
22950;DHT22;11641;51.018;4.474;2022-08-05T09:14:39;25.20;99.90
22950;DHT22;11641;51.018;4.474;2022-08-05T09:17:07;25.70;99.90
22950;DHT22;11641;51.018;4.474;2022-08-05T09:19:33;26.10;99.90
22950;DHT22;11641;51.018;4.474;2022-08-05T09:21:59;25.90;99.90
22950;DHT22;11641;51.018;4.474;2022-08-05T09:24:28;25.90;99.90
22950;DHT22;11641;51.018;4.474;2022-08-05T09:26:57;26.40;99.90
22950;DHT22;11641;51.018;4.474;2022-08-05T09:29:40;26.90;99.90
22950;DHT22;11641;51.018;4.474;2022-08-05T09:32:07;27.50;99.90
22950;DHT22;11641;51.018;4.474;2022-08-05T09:34:53;27.80;99.90
22950;DHT22;11641;51.018;4.474;2022-08-05T09:37:26;27.80;99.80
22950;DHT22;11641;51.018;4.474;2022-08-05T09:39:55;27.30;99.90
22950;DHT22;11641;51.018;4.474;2022-08-05T09:42:21;26.90;99.90
22950;DHT22;11641;51.018;4.474;2022-08-05T09:44:49;26.50;99.90
22950;DHT22;11641;51.018;4.474;2022-08-05T09:47:21;26.60;99.90
22950;DHT22;11641;51.018;4.474;2022-08-05T09:49:50;26.60;99.90
22950;DHT22;11641;51.018;4.474;2022-08-05T09:52:23;26.90;99.90
22950;DHT22;11641;51.018;4.474;2022-08-05T09:55:00;27.10;99.90
22950;DHT22;11641;51.018;4.474;2022-08-05T09:57:29;27.20;99.60
22950;DHT22;11641;51.018;4.474;2022-08-05T10:00:00;27.20;98.60
22950;DHT22;11641;51.018;4.474;2022-08-05T10:02:46;26.90;98.80
22950;DHT22;11641;51.018;4.474;2022-08-05T10:05:17;27.00;99.50
22950;DHT22;11641;51.018;4.474;2022-08-05T10:07:58;28.10;97.50
22950;DHT22;11641;51.018;4.474;2022-08-05T10:12:59;31.00;91.70
22950;DHT22;11641;51.018;4.474;2022-08-05T10:15:35;30.60;87.70
22950;DHT22;11641;51.018;4.474;2022-08-05T10:18:12;30.20;87.00
22950;DHT22;11641;51.018;4.474;2022-08-05T10:20:43;29.10;90.30
22950;DHT22;11641;51.018;4.474;2022-08-05T10:23:10;29.10;89.50
22950;DHT22;11641;51.018;4.474;2022-08-05T10:25:36;28.70;90.00
22950;DHT22;11641;51.018;4.474;2022-08-05T10:28:02;29.10;88.60
22950;DHT22;11641;51.018;4.474;2022-08-05T10:30:28;30.80;84.30
22950;DHT22;11641;51.018;4.474;2022-08-05T10:32:56;31.50;78.10
22950;DHT22;11641;51.018;4.474;2022-08-05T10:35:23;32.50;73.30
22950;DHT22;11641;51.018;4.474;2022-08-05T10:37:49;33.60;71.30
22950;DHT22;11641;51.018;4.474;2022-08-05T10:43:00;36.90;63.00
22950;DHT22;11641;51.018;4.474;2022-08-05T10:45:30;38.10;56.60
22950;DHT22;11641;51.018;4.474;2022-08-05T10:47:57;36.30;57.30
22950;DHT22;11641;51.018;4.474;2022-08-05T10:53:40;32.30;62.50
22950;DHT22;11641;51.018;4.474;2022-08-05T10:56:14;32.80;62.60
22950;DHT22;11641;51.018;4.474;2022-08-05T10:59:06;33.20;59.80
22950;DHT22;11641;51.018;4.474;2022-08-05T11:01:37;34.70;58.50
22950;DHT22;11641;51.018;4.474;2022-08-05T11:12:01;34.40;57.00
22950;DHT22;11641;51.018;4.474;2022-08-05T11:14:29;35.20;58.30
22950;DHT22;11641;51.018;4.474;2022-08-05T11:17:31;36.40;55.60
22950;DHT22;11641;51.018;4.474;2022-08-05T11:20:06;39.80;52.00
22950;DHT22;11641;51.018;4.474;2022-08-05T11:22:43;38.00;50.70
22950;DHT22;11641;51.018;4.474;2022-08-05T11:36:18;31.50;66.30
22950;DHT22;11641;51.018;4.474;2022-08-05T11:41:15;33.00;61.20
22950;DHT22;11641;51.018;4.474;2022-08-05T11:43:55;32.80;62.80
22950;DHT22;11641;51.018;4.474;2022-08-05T11:46:31;34.80;60.30
22950;DHT22;11641;51.018;4.474;2022-08-05T11:48:58;37.60;54.90
22950;DHT22;11641;51.018;4.474;2022-08-05T11:51:25;39.00;52.50
22950;DHT22;11641;51.018;4.474;2022-08-05T11:53:54;38.60;51.80
22950;DHT22;11641;51.018;4.474;2022-08-05T11:56:21;38.10;52.10
22950;DHT22;11641;51.018;4.474;2022-08-05T11:58:50;37.80;52.10
22950;DHT22;11641;51.018;4.474;2022-08-05T12:01:20;36.70;53.10
22950;DHT22;11641;51.018;4.474;2022-08-05T12:03:49;38.00;52.10
22950;DHT22;11641;51.018;4.474;2022-08-05T12:06:35;38.80;50.50
22950;DHT22;11641;51.018;4.474;2022-08-05T12:09:02;41.00;47.10
22950;DHT22;11641;51.018;4.474;2022-08-05T12:11:30;40.00;47.00
22950;DHT22;11641;51.018;4.474;2022-08-05T12:14:00;38.40;48.60
22950;DHT22;11641;51.018;4.474;2022-08-05T12:16:32;36.70;51.40
22950;DHT22;11641;51.018;4.474;2022-08-05T12:19:01;35.40;53.60
22950;DHT22;11641;51.018;4.474;2022-08-05T12:21:29;36.30;53.10
22950;DHT22;11641;51.018;4.474;2022-08-05T12:24:04;38.40;50.00
22950;DHT22;11641;51.018;4.474;2022-08-05T12:26:38;39.60;47.10
22950;DHT22;11641;51.018;4.474;2022-08-05T12:29:16;38.80;47.10
22950;DHT22;11641;51.018;4.474;2022-08-05T12:31:56;37.50;46.00
22950;DHT22;11641;51.018;4.474;2022-08-05T12:34:25;37.70;47.40
22950;DHT22;11641;51.018;4.474;2022-08-05T12:36:57;36.90;49.30
22950;DHT22;11641;51.018;4.474;2022-08-05T12:39:24;34.70;50.10
22950;DHT22;11641;51.018;4.474;2022-08-05T12:41:50;33.90;51.70
22950;DHT22;11641;51.018;4.474;2022-08-05T12:44:22;34.40;50.40
22950;DHT22;11641;51.018;4.474;2022-08-05T12:46:55;36.70;48.80
22950;DHT22;11641;51.018;4.474;2022-08-05T12:49:21;37.60;46.30
22950;DHT22;11641;51.018;4.474;2022-08-05T12:51:57;37.40;46.00
22950;DHT22;11641;51.018;4.474;2022-08-05T12:54:29;37.60;46.00
22950;DHT22;11641;51.018;4.474;2022-08-05T12:56:56;38.20;45.60
22950;DHT22;11641;51.018;4.474;2022-08-05T12:59:23;39.90;43.90
22950;DHT22;11641;51.018;4.474;2022-08-05T13:02:04;38.10;45.90
22950;DHT22;11641;51.018;4.474;2022-08-05T13:04:43;40.10;43.30
22950;DHT22;11641;51.018;4.474;2022-08-05T13:07:19;37.50;45.30
22950;DHT22;11641;51.018;4.474;2022-08-05T13:09:54;38.30;45.60
22950;DHT22;11641;51.018;4.474;2022-08-05T13:12:22;38.90;43.70
22950;DHT22;11641;51.018;4.474;2022-08-05T13:14:57;37.80;46.40
22950;DHT22;11641;51.018;4.474;2022-08-05T13:17:26;38.60;44.70
22950;DHT22;11641;51.018;4.474;2022-08-05T13:19:58;38.70;43.70
22950;DHT22;11641;51.018;4.474;2022-08-05T13:22:24;39.40;43.60
22950;DHT22;11641;51.018;4.474;2022-08-05T13:24:50;40.50;43.40
22950;DHT22;11641;51.018;4.474;2022-08-05T13:27:27;42.60;41.10
22950;DHT22;11641;51.018;4.474;2022-08-05T13:29:53;42.50;39.30
22950;DHT22;11641;51.018;4.474;2022-08-05T13:32:19;40.70;40.60
22950;DHT22;11641;51.018;4.474;2022-08-05T13:34:46;40.40;42.00
22950;DHT22;11641;51.018;4.474;2022-08-05T13:37:12;42.20;40.60
22950;DHT22;11641;51.018;4.474;2022-08-05T13:39:37;43.70;38.50
22950;DHT22;11641;51.018;4.474;2022-08-05T13:42:06;44.10;38.00
22950;DHT22;11641;51.018;4.474;2022-08-05T13:44:32;40.10;40.50
22950;DHT22;11641;51.018;4.474;2022-08-05T13:47:01;38.20;43.40
22950;DHT22;11641;51.018;4.474;2022-08-05T13:49:30;38.20;44.20
22950;DHT22;11641;51.018;4.474;2022-08-05T13:51:56;37.50;45.30
22950;DHT22;11641;51.018;4.474;2022-08-05T13:54:22;37.40;45.20
22950;DHT22;11641;51.018;4.474;2022-08-05T13:56:50;35.20;47.10
22950;DHT22;11641;51.018;4.474;2022-08-05T13:59:16;34.30;48.70
22950;DHT22;11641;51.018;4.474;2022-08-05T14:01:48;33.40;51.30
22950;DHT22;11641;51.018;4.474;2022-08-05T14:04:14;32.90;52.20
22950;DHT22;11641;51.018;4.474;2022-08-05T14:07:00;33.90;49.70
22950;DHT22;11641;51.018;4.474;2022-08-05T14:09:26;36.20;47.00
22950;DHT22;11641;51.018;4.474;2022-08-05T14:11:52;37.70;45.00
22950;DHT22;11641;51.018;4.474;2022-08-05T14:14:18;37.50;43.80
22950;DHT22;11641;51.018;4.474;2022-08-05T14:16:44;36.80;44.50
22950;DHT22;11641;51.018;4.474;2022-08-05T14:19:09;37.40;44.70
22950;DHT22;11641;51.018;4.474;2022-08-05T14:21:35;38.20;43.30
22950;DHT22;11641;51.018;4.474;2022-08-05T14:24:01;36.60;45.50
22950;DHT22;11641;51.018;4.474;2022-08-05T14:26:26;34.50;48.10
22950;DHT22;11641;51.018;4.474;2022-08-05T14:28:52;34.10;48.90
22950;DHT22;11641;51.018;4.474;2022-08-05T14:31:18;33.50;50.40
22950;DHT22;11641;51.018;4.474;2022-08-05T14:33:46;34.30;49.60
22950;DHT22;11641;51.018;4.474;2022-08-05T14:36:14;34.30;48.40
22950;DHT22;11641;51.018;4.474;2022-08-05T14:38:41;36.20;46.20
22950;DHT22;11641;51.018;4.474;2022-08-05T14:41:09;35.70;45.30
22950;DHT22;11641;51.018;4.474;2022-08-05T14:43:35;34.60;46.50
22950;DHT22;11641;51.018;4.474;2022-08-05T14:46:02;35.80;45.50
22950;DHT22;11641;51.018;4.474;2022-08-05T14:48:32;37.40;43.90
22950;DHT22;11641;51.018;4.474;2022-08-05T14:50:57;37.40;43.40
22950;DHT22;11641;51.018;4.474;2022-08-05T14:53:24;39.20;42.20
22950;DHT22;11641;51.018;4.474;2022-08-05T14:55:49;38.70;41.70
22950;DHT22;11641;51.018;4.474;2022-08-05T14:58:17;37.80;41.70
22950;DHT22;11641;51.018;4.474;2022-08-05T15:00:43;36.60;43.10
22950;DHT22;11641;51.018;4.474;2022-08-05T15:03:09;37.20;43.70
22950;DHT22;11641;51.018;4.474;2022-08-05T15:05:35;36.70;43.90
22950;DHT22;11641;51.018;4.474;2022-08-05T15:08:02;36.80;42.80
22950;DHT22;11641;51.018;4.474;2022-08-05T15:10:30;35.10;45.10
22950;DHT22;11641;51.018;4.474;2022-08-05T15:12:58;31.90;50.40
22950;DHT22;11641;51.018;4.474;2022-08-05T15:15:25;30.70;53.30
22950;DHT22;11641;51.018;4.474;2022-08-05T15:17:52;30.10;55.00
22950;DHT22;11641;51.018;4.474;2022-08-05T15:20:18;32.40;52.90
22950;DHT22;11641;51.018;4.474;2022-08-05T15:22:48;34.10;49.00
22950;DHT22;11641;51.018;4.474;2022-08-05T15:25:16;35.20;48.60
22950;DHT22;11641;51.018;4.474;2022-08-05T15:27:45;34.40;48.00
22950;DHT22;11641;51.018;4.474;2022-08-05T15:30:12;32.60;50.90
22950;DHT22;11641;51.018;4.474;2022-08-05T15:32:37;31.00;53.70
22950;DHT22;11641;51.018;4.474;2022-08-05T15:35:03;30.10;55.20
22950;DHT22;11641;51.018;4.474;2022-08-05T15:37:29;29.50;57.30
22950;DHT22;11641;51.018;4.474;2022-08-05T15:39:55;28.90;57.60
22950;DHT22;11641;51.018;4.474;2022-08-05T15:42:22;29.60;58.10
22950;DHT22;11641;51.018;4.474;2022-08-05T15:44:51;28.80;57.00
22950;DHT22;11641;51.018;4.474;2022-08-05T15:47:21;28.80;58.40
22950;DHT22;11641;51.018;4.474;2022-08-05T15:49:50;28.60;59.00
22950;DHT22;11641;51.018;4.474;2022-08-05T15:52:19;28.30;59.70
22950;DHT22;11641;51.018;4.474;2022-08-05T15:54:50;27.30;62.20
22950;DHT22;11641;51.018;4.474;2022-08-05T15:57:17;27.10;63.00
22950;DHT22;11641;51.018;4.474;2022-08-05T15:59:45;27.20;63.30
22950;DHT22;11641;51.018;4.474;2022-08-05T16:02:12;27.80;61.10
22950;DHT22;11641;51.018;4.474;2022-08-05T16:04:41;28.30;59.70
22950;DHT22;11641;51.018;4.474;2022-08-05T16:07:07;29.80;57.20
22950;DHT22;11641;51.018;4.474;2022-08-05T16:09:35;31.60;54.40
22950;DHT22;11641;51.018;4.474;2022-08-05T16:12:02;32.30;53.00
22950;DHT22;11641;51.018;4.474;2022-08-05T16:14:30;31.60;53.30
22950;DHT22;11641;51.018;4.474;2022-08-05T16:16:58;30.10;55.30
22950;DHT22;11641;51.018;4.474;2022-08-05T16:19:24;29.80;56.90
22950;DHT22;11641;51.018;4.474;2022-08-05T16:21:50;30.10;56.20